Time;durP1;ratioP1;P1;durP2;ratioP2;P2;SDS_P1;SDS_P2;PMS_P1;PMS_P2;Temp;Humidity;BMP_temperature;BMP_pressure;BME280_temperature;BME280_humidity;BME280_pressure;Samples;Min_cycle;Max_cycle;Signal;HPM_P1;HPM_P2
2023/09/22 00:02:05;;;;;;;0.77;0.30;;;;;;;;;;5057602;28;20099;-59
2023/09/22 00:04:32;;;;;;;1.15;0.50;;;;;;;;;;5056833;28;20025;-59
2023/09/22 00:07:01;;;;;;;0.52;0.28;;;;;;;;;;5057794;28;20184;-59
2023/09/22 00:09:27;;;;;;;0.68;0.30;;;;;;;;;;5056782;28;20021;-59
2023/09/22 00:11:53;;;;;;;1.23;0.50;;;;;;;;;;5056971;28;20419;-59
2023/09/22 00:14:19;;;;;;;1.35;0.50;;;;;;;;;;5056960;28;20100;-59
2023/09/22 00:16:45;;;;;;;1.15;0.40;;;;;;;;;;5056628;28;20063;-59
2023/09/22 00:19:11;;;;;;;0.98;0.60;;;;;;;;;;5056730;28;20036;-59
2023/09/22 00:21:37;;;;;;;1.17;0.40;;;;;;;;;;5056194;28;20029;-59
2023/09/22 00:24:03;;;;;;;0.82;0.35;;;;;;;;;;5056492;28;20043;-59
2023/09/22 00:26:29;;;;;;;0.93;0.40;;;;;;;;;;5056396;28;20017;-59
2023/09/22 00:28:56;;;;;;;0.80;0.40;;;;;;;;;;5056379;28;20028;-59
2023/09/22 00:31:22;;;;;;;0.25;0.10;;;;;;;;;;5056288;28;20025;-59
2023/09/22 00:33:48;;;;;;;0.68;0.30;;;;;;;;;;5056264;28;20032;-59
2023/09/22 00:36:16;;;;;;;0.85;0.35;;;;;;;;;;5055861;28;20502;-59
2023/09/22 00:38:42;;;;;;;0.80;0.38;;;;;;;;;;5056634;28;20402;-59
2023/09/22 00:41:07;;;;;;;0.65;0.30;;;;;;;;;;5056703;28;20017;-59
2023/09/22 00:43:33;;;;;;;1.52;0.63;;;;;;;;;;5055749;28;20527;-59
2023/09/22 00:46:00;;;;;;;1.13;0.73;;;;;;;;;;5056337;28;20101;-59
2023/09/22 00:48:30;;;;;;;1.30;0.52;;;;;;;;;;5055769;28;20056;-59
2023/09/22 00:50:57;;;;;;;1.50;0.50;;;;;;;;;;5055738;28;20025;-59
2023/09/22 00:53:28;;;;;;;0.80;0.40;;;;;;;;;;5056440;28;20413;-59
2023/09/22 00:55:54;;;;;;;1.95;0.73;;;;;;;;;;5055901;28;20025;-59
2023/09/22 00:58:20;;;;;;;0.95;0.35;;;;;;;;;;5055738;28;20029;-59
2023/09/22 01:00:50;;;;;;;0.73;0.43;;;;;;;;;;5056186;28;20029;-59
2023/09/22 01:03:18;;;;;;;0.95;0.50;;;;;;;;;;5055382;28;20438;-59
2023/09/22 01:05:45;;;;;;;1.38;0.70;;;;;;;;;;5055736;28;20079;-59
2023/09/22 01:08:11;;;;;;;1.05;0.57;;;;;;;;;;5055636;28;20024;-59
2023/09/22 01:10:38;;;;;;;1.63;0.63;;;;;;;;;;5055781;28;20032;-59
2023/09/22 01:13:05;;;;;;;0.93;0.43;;;;;;;;;;5054881;28;20459;-59
2023/09/22 01:15:35;;;;;;;1.38;0.63;;;;;;;;;;5056059;28;20036;-59
2023/09/22 01:18:01;;;;;;;0.95;0.40;;;;;;;;;;5055470;28;20025;-59
2023/09/22 01:20:27;;;;;;;1.10;0.47;;;;;;;;;;5055714;28;20111;-59
2023/09/22 01:22:52;;;;;;;3.60;0.47;;;;;;;;;;5055407;28;20027;-59
2023/09/22 01:25:18;;;;;;;1.13;0.30;;;;;;;;;;5055362;28;20024;-59
2023/09/22 01:27:47;;;;;;;0.98;0.38;;;;;;;;;;5055835;28;20350;-59
2023/09/22 01:30:14;;;;;;;0.65;0.32;;;;;;;;;;5055865;28;20055;-59
2023/09/22 01:32:40;;;;;;;0.85;0.40;;;;;;;;;;5054821;28;20535;-59
2023/09/22 01:35:09;;;;;;;0.88;0.43;;;;;;;;;;5055411;28;20048;-59
2023/09/22 01:37:43;;;;;;;0.65;0.35;;;;;;;;;;5055838;28;20043;-59
2023/09/22 01:40:09;;;;;;;1.92;0.32;;;;;;;;;;5054933;28;20029;-59
2023/09/22 01:42:35;;;;;;;1.05;0.40;;;;;;;;;;5055036;28;20017;-59
2023/09/22 01:45:01;;;;;;;0.60;0.25;;;;;;;;;;5054994;28;20033;-59
2023/09/22 01:47:27;;;;;;;1.52;0.70;;;;;;;;;;5055647;28;20028;-59
2023/09/22 01:49:54;;;;;;;1.13;0.50;;;;;;;;;;5055498;28;20359;-59
2023/09/22 01:52:20;;;;;;;1.30;0.57;;;;;;;;;;5054710;28;20029;-59
2023/09/22 01:54:46;;;;;;;1.95;0.85;;;;;;;;;;5054481;28;20025;-59
2023/09/22 01:57:13;;;;;;;1.15;0.47;;;;;;;;;;5054583;28;20390;-59
2023/09/22 01:59:39;;;;;;;0.73;0.40;;;;;;;;;;5055169;28;20414;-59
2023/09/22 02:02:05;;;;;;;1.80;0.50;;;;;;;;;;5054679;28;20025;-59
2023/09/22 02:04:31;;;;;;;1.75;0.73;;;;;;;;;;5054701;28;20106;-59
2023/09/22 02:06:57;;;;;;;0.90;0.30;;;;;;;;;;5054928;28;20466;-59
2023/09/22 02:09:23;;;;;;;0.98;0.40;;;;;;;;;;5053798;28;20028;-59
2023/09/22 02:11:49;;;;;;;1.98;0.77;;;;;;;;;;5054656;28;20367;-59
2023/09/22 02:14:15;;;;;;;3.10;0.68;;;;;;;;;;5054355;28;20025;-59
2023/09/22 02:16:40;;;;;;;0.70;0.45;;;;;;;;;;5054715;28;20021;-59
2023/09/22 02:19:07;;;;;;;0.45;0.20;;;;;;;;;;5054279;28;20029;-59
2023/09/22 02:21:32;;;;;;;1.55;0.50;;;;;;;;;;5053889;28;20479;-59
2023/09/22 02:23:58;;;;;;;0.75;0.30;;;;;;;;;;5053952;28;20025;-59
2023/09/22 02:26:25;;;;;;;0.65;0.30;;;;;;;;;;5053900;28;20017;-59
2023/09/22 02:28:51;;;;;;;0.50;0.30;;;;;;;;;;5054666;28;20106;-59
2023/09/22 02:31:18;;;;;;;0.93;0.38;;;;;;;;;;5054367;28;20053;-59
2023/09/22 02:33:43;;;;;;;0.47;0.22;;;;;;;;;;5054321;28;20025;-59
2023/09/22 02:36:09;;;;;;;1.60;0.45;;;;;;;;;;5054428;28;20135;-59
2023/09/22 02:38:35;;;;;;;0.50;0.30;;;;;;;;;;5053914;28;20091;-59
2023/09/22 02:41:01;;;;;;;1.17;0.60;;;;;;;;;;5054504;28;20024;-59
2023/09/22 02:43:27;;;;;;;0.90;0.40;;;;;;;;;;5054443;28;20447;-59
2023/09/22 02:45:53;;;;;;;2.83;0.43;;;;;;;;;;5053894;28;20021;-59
2023/09/22 02:48:19;;;;;;;0.90;0.68;;;;;;;;;;5054543;28;20017;-59
2023/09/22 02:50:46;;;;;;;4.55;0.38;;;;;;;;;;5054307;28;20021;-59
2023/09/22 02:53:12;;;;;;;1.40;0.60;;;;;;;;;;5054211;28;20350;-59
2023/09/22 02:55:38;;;;;;;2.28;0.50;;;;;;;;;;5054507;28;20022;-59
2023/09/22 02:58:04;;;;;;;1.20;0.70;;;;;;;;;;5053420;28;20025;-59
2023/09/22 03:00:30;;;;;;;1.40;0.50;;;;;;;;;;5054443;28;20040;-59
2023/09/22 03:02:56;;;;;;;1.25;0.50;;;;;;;;;;5053393;28;20467;-59
2023/09/22 03:05:23;;;;;;;0.95;0.40;;;;;;;;;;5053935;28;20076;-59
2023/09/22 03:07:53;;;;;;;2.33;0.63;;;;;;;;;;5053506;28;20055;-59
2023/09/22 03:10:19;;;;;;;1.38;0.65;;;;;;;;;;5053567;28;20529;-59
2023/09/22 03:12:46;;;;;;;0.70;0.40;;;;;;;;;;5053552;28;20025;-59
2023/09/22 03:15:13;;;;;;;2.20;0.55;;;;;;;;;;5053448;28;20021;-59
2023/09/22 03:17:39;;;;;;;0.90;0.50;;;;;;;;;;5053904;28;20025;-59
2023/09/22 03:20:12;;;;;;;1.17;0.60;;;;;;;;;;5053873;28;20032;-59
2023/09/22 03:22:38;;;;;;;1.90;0.73;;;;;;;;;;5053960;28;20094;-59
2023/09/22 03:25:05;;;;;;;3.42;0.63;;;;;;;;;;5053962;28;20064;-59
2023/09/22 03:27:34;;;;;;;3.97;0.60;;;;;;;;;;5053248;28;20554;-59
2023/09/22 03:30:00;;;;;;;1.10;0.45;;;;;;;;;;5053856;28;20048;-59
2023/09/22 03:32:27;;;;;;;1.40;0.50;;;;;;;;;;5053296;28;20029;-59
2023/09/22 03:34:53;;;;;;;0.73;0.32;;;;;;;;;;5054329;28;20053;-59
2023/09/22 03:37:19;;;;;;;2.70;0.80;;;;;;;;;;5057834;28;20020;-59
2023/09/22 03:39:46;;;;;;;0.85;0.40;;;;;;;;;;5058062;28;20081;-59
2023/09/22 03:42:14;;;;;;;2.10;0.70;;;;;;;;;;5058078;28;20090;-59
2023/09/22 03:44:40;;;;;;;1.42;0.50;;;;;;;;;;5057219;28;20078;-59
2023/09/22 03:47:06;;;;;;;1.60;0.73;;;;;;;;;;5056844;28;20486;-59
2023/09/22 03:49:32;;;;;;;1.25;0.60;;;;;;;;;;5057440;28;20036;-59
2023/09/22 03:51:58;;;;;;;1.60;0.47;;;;;;;;;;5057052;28;20032;-59
2023/09/22 03:54:24;;;;;;;1.35;0.50;;;;;;;;;;5057090;28;20032;-59
2023/09/22 03:56:50;;;;;;;1.17;0.60;;;;;;;;;;5056791;28;20475;-59
2023/09/22 03:59:15;;;;;;;1.63;0.65;;;;;;;;;;5057246;28;20032;-59
2023/09/22 04:01:42;;;;;;;1.67;0.60;;;;;;;;;;5056900;28;20024;-59
2023/09/22 04:04:08;;;;;;;3.08;0.57;;;;;;;;;;5056921;28;20455;-59
2023/09/22 04:06:33;;;;;;;1.27;0.57;;;;;;;;;;5056986;28;20024;-59
2023/09/22 04:09:02;;;;;;;1.70;0.75;;;;;;;;;;5056937;28;20120;-59
2023/09/22 04:11:28;;;;;;;1.42;0.47;;;;;;;;;;5057361;28;20029;-59
2023/09/22 04:13:54;;;;;;;1.00;0.60;;;;;;;;;;5056863;28;20463;-59
2023/09/22 04:16:20;;;;;;;1.35;0.68;;;;;;;;;;5056648;28;20032;-59
2023/09/22 04:18:46;;;;;;;1.75;0.45;;;;;;;;;;5056674;28;20071;-59
2023/09/22 04:21:12;;;;;;;1.45;0.55;;;;;;;;;;5057290;28;20021;-59
2023/09/22 04:23:45;;;;;;;0.93;0.38;;;;;;;;;;5056996;28;20036;-59
2023/09/22 04:26:11;;;;;;;0.95;0.40;;;;;;;;;;5057161;28;20029;-59
2023/09/22 04:28:37;;;;;;;1.55;0.52;;;;;;;;;;5057320;28;20108;-59
2023/09/22 04:31:03;;;;;;;0.98;0.47;;;;;;;;;;5056252;28;20028;-59
2023/09/22 04:33:29;;;;;;;0.75;0.30;;;;;;;;;;5056384;28;20033;-59
2023/09/22 04:35:55;;;;;;;1.73;0.70;;;;;;;;;;5055937;28;20131;-59
2023/09/22 04:38:21;;;;;;;1.90;0.80;;;;;;;;;;5056172;28;20013;-59
2023/09/22 04:40:48;;;;;;;2.80;0.65;;;;;;;;;;5056351;28;20514;-59
2023/09/22 04:43:13;;;;;;;0.98;0.57;;;;;;;;;;5056506;28;20048;-59
2023/09/22 04:45:40;;;;;;;0.75;0.40;;;;;;;;;;5056051;28;20025;-59
2023/09/22 04:48:09;;;;;;;6.03;0.60;;;;;;;;;;5056104;28;20097;-59
2023/09/22 04:50:35;;;;;;;1.40;0.70;;;;;;;;;;5056676;28;20029;-59
2023/09/22 04:53:01;;;;;;;1.38;0.45;;;;;;;;;;5056176;28;20025;-59
2023/09/22 04:55:31;;;;;;;1.33;0.50;;;;;;;;;;5056279;28;20024;-59
2023/09/22 04:57:57;;;;;;;1.67;0.77;;;;;;;;;;5055929;28;20024;-59
2023/09/22 05:00:24;;;;;;;2.15;0.85;;;;;;;;;;5056313;28;20036;-59
2023/09/22 05:02:50;;;;;;;1.42;0.55;;;;;;;;;;5055491;28;20506;-59
2023/09/22 05:05:18;;;;;;;1.45;0.50;;;;;;;;;;5055768;28;20063;-59
2023/09/22 05:07:44;;;;;;;1.13;0.50;;;;;;;;;;5055639;28;20025;-59
2023/09/22 05:10:11;;;;;;;2.30;0.63;;;;;;;;;;5056264;28;20166;-59
2023/09/22 05:12:37;;;;;;;1.50;0.85;;;;;;;;;;5055613;28;20032;-59
2023/09/22 05:15:04;;;;;;;1.25;0.55;;;;;;;;;;5055830;28;20363;-59
2023/09/22 05:17:30;;;;;;;1.85;0.63;;;;;;;;;;5055712;28;20450;-59
2023/09/22 05:19:58;;;;;;;1.25;0.60;;;;;;;;;;5055994;28;20139;-59
2023/09/22 05:22:24;;;;;;;2.60;0.88;;;;;;;;;;5055680;28;20021;-59
2023/09/22 05:24:50;;;;;;;2.13;0.90;;;;;;;;;;5055504;28;20040;-59
2023/09/22 05:27:16;;;;;;;1.45;0.70;;;;;;;;;;5055352;28;20029;-59
2023/09/22 05:29:42;;;;;;;2.40;0.95;;;;;;;;;;5055779;28;20036;-59
2023/09/22 05:32:08;;;;;;;1.25;0.52;;;;;;;;;;5056091;28;20021;-59
2023/09/22 05:34:34;;;;;;;2.97;1.08;;;;;;;;;;5054011;28;20363;-59
2023/09/22 05:37:00;;;;;;;1.52;0.75;;;;;;;;;;5055119;28;20120;-59
2023/09/22 05:39:26;;;;;;;1.20;0.60;;;;;;;;;;5055663;28;20107;-59
2023/09/22 05:41:52;;;;;;;1.92;0.80;;;;;;;;;;5055680;28;20451;-59
2023/09/22 05:44:18;;;;;;;2.03;0.88;;;;;;;;;;5055145;28;20375;-59
2023/09/22 05:46:44;;;;;;;1.58;0.82;;;;;;;;;;5055498;28;20025;-59
2023/09/22 05:49:14;;;;;;;0.85;0.47;;;;;;;;;;5055321;28;20037;-59
2023/09/22 05:51:41;;;;;;;2.30;0.90;;;;;;;;;;5055366;28;20374;-58
2023/09/22 05:54:07;;;;;;;1.77;0.60;;;;;;;;;;5055053;28;20367;-59
2023/09/22 05:56:34;;;;;;;1.33;0.65;;;;;;;;;;5054669;28;20021;-59
2023/09/22 05:59:00;;;;;;;1.38;0.63;;;;;;;;;;5054852;28;20029;-59
2023/09/22 06:01:27;;;;;;;1.23;0.57;;;;;;;;;;5054672;28;20029;-59
2023/09/22 06:03:53;;;;;;;1.60;0.77;;;;;;;;;;5054639;28;20346;-59
2023/09/22 06:06:20;;;;;;;1.48;0.68;;;;;;;;;;5054887;28;20039;-59
2023/09/22 06:08:46;;;;;;;1.67;0.82;;;;;;;;;;5055163;28;20064;-59
2023/09/22 06:11:13;;;;;;;0.93;0.43;;;;;;;;;;5054516;28;20029;-59
2023/09/22 06:13:39;;;;;;;1.63;0.50;;;;;;;;;;5054450;28;20025;-59
2023/09/22 06:16:06;;;;;;;3.88;1.00;;;;;;;;;;5053141;28;20029;-59
2023/09/22 06:18:32;;;;;;;3.75;0.82;;;;;;;;;;5054291;28;20033;-59
2023/09/22 06:20:59;;;;;;;1.23;0.57;;;;;;;;;;5054929;28;20017;-59
2023/09/22 06:23:25;;;;;;;1.45;0.30;;;;;;;;;;5054173;28;20048;-59
2023/09/22 06:25:52;;;;;;;1.13;0.52;;;;;;;;;;5054199;28;20021;-59
2023/09/22 06:28:18;;;;;;;1.20;0.43;;;;;;;;;;5053736;28;20023;-59
2023/09/22 06:30:46;;;;;;;1.48;0.82;;;;;;;;;;5053738;28;20465;-59
2023/09/22 06:33:12;;;;;;;1.55;0.40;;;;;;;;;;5053604;28;20048;-59
2023/09/22 06:35:39;;;;;;;1.40;0.65;;;;;;;;;;5053404;28;20049;-59
2023/09/22 06:38:06;;;;;;;1.60;0.65;;;;;;;;;;5054524;28;20065;-59
2023/09/22 06:40:35;;;;;;;1.35;0.70;;;;;;;;;;5054243;28;20033;-59
2023/09/22 06:43:00;;;;;;;0.68;0.20;;;;;;;;;;5053872;28;20135;-59
2023/09/22 06:45:26;;;;;;;1.45;0.70;;;;;;;;;;5054241;28;20112;-59
2023/09/22 06:47:52;;;;;;;1.45;0.60;;;;;;;;;;5053467;28;20459;-59
2023/09/22 06:50:19;;;;;;;1.50;0.70;;;;;;;;;;5054148;28;20029;-59
2023/09/22 06:52:45;;;;;;;2.97;1.27;;;;;;;;;;5054269;28;20032;-59
2023/09/22 06:55:13;;;;;;;1.95;0.88;;;;;;;;;;5054180;28;20107;-59
2023/09/22 06:57:42;;;;;;;2.00;1.02;;;;;;;;;;5053667;28;20434;-59
2023/09/22 07:00:15;;;;;;;3.33;1.50;;;;;;;;;;5054240;28;20033;-59
2023/09/22 07:02:42;;;;;;;2.75;1.35;;;;;;;;;;5054175;28;20032;-59
2023/09/22 07:05:09;;;;;;;2.85;1.33;;;;;;;;;;5053498;28;20025;-59
2023/09/22 07:07:37;;;;;;;1.65;1.10;;;;;;;;;;5053646;28;20025;-59
2023/09/22 07:10:04;;;;;;;2.20;1.10;;;;;;;;;;5052676;28;20091;-59
2023/09/22 07:12:31;;;;;;;2.38;1.02;;;;;;;;;;5053832;28;20430;-59
2023/09/22 07:14:57;;;;;;;3.28;0.63;;;;;;;;;;5053865;28;20092;-59
2023/09/22 07:17:23;;;;;;;0.80;0.40;;;;;;;;;;5053490;28;20070;-59
2023/09/22 07:19:49;;;;;;;2.47;0.82;;;;;;;;;;5053708;28;20048;-59
2023/09/22 07:22:15;;;;;;;1.25;0.60;;;;;;;;;;5053381;28;20025;-59
2023/09/22 07:24:42;;;;;;;2.20;0.95;;;;;;;;;;5053935;28;20032;-59
2023/09/22 07:27:08;;;;;;;1.50;0.77;;;;;;;;;;5053843;28;20359;-59
2023/09/22 07:29:34;;;;;;;1.52;0.70;;;;;;;;;;5053934;28;20025;-59
2023/09/22 07:32:00;;;;;;;1.08;0.57;;;;;;;;;;5053430;28;20175;-59
2023/09/22 07:34:26;;;;;;;2.15;0.70;;;;;;;;;;5053060;28;20035;-59
2023/09/22 07:36:52;;;;;;;1.50;0.80;;;;;;;;;;5053874;28;20033;-59
2023/09/22 07:39:19;;;;;;;0.65;0.38;;;;;;;;;;5053755;28;20040;-59
2023/09/22 07:41:46;;;;;;;2.65;0.80;;;;;;;;;;5053327;28;20478;-59
2023/09/22 07:44:11;;;;;;;6.90;0.68;;;;;;;;;;5053244;28;20017;-59
2023/09/22 07:46:39;;;;;;;2.20;0.40;;;;;;;;;;5053295;28;20112;-59
2023/09/22 07:49:06;;;;;;;1.35;0.55;;;;;;;;;;5053830;28;20036;-59
2023/09/22 07:51:33;;;;;;;1.83;0.85;;;;;;;;;;5053551;28;20075;-59
2023/09/22 07:53:59;;;;;;;2.28;0.88;;;;;;;;;;5053199;28;20025;-59
2023/09/22 07:56:25;;;;;;;1.58;0.80;;;;;;;;;;5053085;28;20028;-59
2023/09/22 07:58:51;;;;;;;1.27;0.60;;;;;;;;;;5053419;28;20025;-59
2023/09/22 08:01:17;;;;;;;1.50;0.90;;;;;;;;;;5054001;28;20032;-59
2023/09/22 08:03:43;;;;;;;1.70;0.90;;;;;;;;;;5053533;28;20057;-59
2023/09/22 08:06:11;;;;;;;2.38;0.82;;;;;;;;;;5053116;28;20036;-59
2023/09/22 08:08:37;;;;;;;2.03;0.98;;;;;;;;;;5053081;28;20100;-59
2023/09/22 08:11:04;;;;;;;1.73;0.88;;;;;;;;;;5053707;28;20150;-59
2023/09/22 08:13:30;;;;;;;1.50;0.70;;;;;;;;;;5052934;28;20029;-59
2023/09/22 08:15:56;;;;;;;1.73;0.75;;;;;;;;;;5052657;28;20017;-59
2023/09/22 08:18:24;;;;;;;1.27;0.68;;;;;;;;;;5052872;28;20174;-59
2023/09/22 08:20:50;;;;;;;2.05;0.98;;;;;;;;;;5054414;28;20044;-59
2023/09/22 08:23:15;;;;;;;1.95;0.82;;;;;;;;;;5056433;28;20017;-59
2023/09/22 08:25:43;;;;;;;1.27;0.68;;;;;;;;;;5057038;28;20039;-59
2023/09/22 08:28:12;;;;;;;0.95;0.43;;;;;;;;;;5056778;28;20366;-59
2023/09/22 08:30:39;;;;;;;1.23;0.60;;;;;;;;;;5056630;28;20078;-59
2023/09/22 08:33:05;;;;;;;1.35;0.75;;;;;;;;;;5056441;28;20029;-59
2023/09/22 08:35:31;;;;;;;1.70;0.85;;;;;;;;;;5056551;28;20053;-59
2023/09/22 08:37:57;;;;;;;1.55;0.52;;;;;;;;;;5056325;28;20032;-58
2023/09/22 08:40:23;;;;;;;1.63;0.77;;;;;;;;;;5056782;28;20037;-59
2023/09/22 08:42:51;;;;;;;1.17;0.63;;;;;;;;;;5056193;28;20036;-59
2023/09/22 08:45:17;;;;;;;1.55;0.73;;;;;;;;;;5056266;28;20048;-59
2023/09/22 08:47:45;;;;;;;3.17;0.85;;;;;;;;;;5055843;28;20459;-59
2023/09/22 08:50:12;;;;;;;1.48;0.68;;;;;;;;;;5056920;28;20033;-59
2023/09/22 08:52:39;;;;;;;1.83;0.60;;;;;;;;;;5056080;28;20413;-59
2023/09/22 08:55:08;;;;;;;2.50;0.52;;;;;;;;;;5055989;28;20021;-59
2023/09/22 08:57:34;;;;;;;4.07;0.80;;;;;;;;;;5055904;28;20211;-59
2023/09/22 09:00:00;;;;;;;1.45;0.25;;;;;;;;;;5056272;28;20040;-59
2023/09/22 09:02:27;;;;;;;1.13;0.40;;;;;;;;;;5056186;28;20032;-59
2023/09/22 09:04:53;;;;;;;1.65;0.68;;;;;;;;;;5056401;28;20359;-59
2023/09/22 09:07:22;;;;;;;3.53;1.60;;;;;;;;;;5055736;28;20029;-59
2023/09/22 09:09:48;;;;;;;1.40;0.70;;;;;;;;;;5056095;28;20025;-59
2023/09/22 09:12:14;;;;;;;1.35;0.40;;;;;;;;;;5055709;28;20017;-59
2023/09/22 09:14:42;;;;;;;1.55;0.70;;;;;;;;;;5055603;28;20032;-58
2023/09/22 09:17:23;;;;;;;2.38;0.80;;;;;;;;;;5055958;28;20028;-59
2023/09/22 09:19:49;;;;;;;1.77;0.63;;;;;;;;;;5055848;28;20037;-59
2023/09/22 09:22:15;;;;;;;1.13;0.55;;;;;;;;;;5055116;28;20079;-59
2023/09/22 09:24:43;;;;;;;0.90;0.45;;;;;;;;;;5055478;28;20021;-59
2023/09/22 09:27:19;;;;;;;1.40;0.68;;;;;;;;;;5055881;28;20086;-59
2023/09/22 09:29:46;;;;;;;1.30;0.50;;;;;;;;;;5055420;28;20040;-59
2023/09/22 09:32:21;;;;;;;1.52;0.40;;;;;;;;;;5054802;28;20029;-59
2023/09/22 09:34:48;;;;;;;1.38;0.60;;;;;;;;;;5055447;28;20049;-59
2023/09/22 09:37:14;;;;;;;0.95;0.40;;;;;;;;;;5054922;28;20063;-59
2023/09/22 09:39:45;;;;;;;1.38;0.60;;;;;;;;;;5055630;28;20065;-59
2023/09/22 09:42:11;;;;;;;;;;;;;;;;;;5055608;28;20362;-59
2023/09/22 09:44:38;;;;;;;1.48;0.52;;;;;;;;;;5055094;28;19996;-59
2023/09/22 09:47:04;;;;;;;1.95;0.73;;;;;;;;;;5055027;28;20099;-59
2023/09/22 09:49:31;;;;;;;1.05;0.50;;;;;;;;;;5055667;28;20033;-59
2023/09/22 09:51:58;;;;;;;2.40;0.65;;;;;;;;;;5055079;28;20056;-59
2023/09/22 09:54:24;;;;;;;7.47;0.70;;;;;;;;;;5055484;28;20029;-59
2023/09/22 09:56:51;;;;;;;6.65;0.85;;;;;;;;;;5054879;28;20029;-59
2023/09/22 09:59:21;;;;;;;0.85;0.40;;;;;;;;;;5055246;28;20128;-59
2023/09/22 10:01:47;;;;;;;4.30;0.50;;;;;;;;;;5054877;28;20456;-59
2023/09/22 10:04:19;;;;;;;0.82;0.38;;;;;;;;;;5054683;28;20021;-59
2023/09/22 10:06:45;;;;;;;1.30;0.35;;;;;;;;;;5055219;28;20135;-59
2023/09/22 10:09:11;;;;;;;1.60;0.40;;;;;;;;;;5055263;28;20111;-59
2023/09/22 10:11:37;;;;;;;1.50;0.50;;;;;;;;;;5054561;28;20079;-59
2023/09/22 10:14:04;;;;;;;1.02;0.50;;;;;;;;;;5055274;28;20033;-58
2023/09/22 10:16:31;;;;;;;2.28;0.70;;;;;;;;;;5053520;28;20025;-59
2023/09/22 10:19:02;;;;;;;1.92;0.38;;;;;;;;;;5054732;28;20422;-59
2023/09/22 10:21:31;;;;;;;1.23;0.55;;;;;;;;;;5054982;28;20445;-59
2023/09/22 10:24:15;;;;;;;1.20;0.65;;;;;;;;;;5054241;28;20021;-59
2023/09/22 10:27:07;;;;;;;1.85;0.80;;;;;;;;;;5054725;28;20424;-59
2023/09/22 10:29:36;;;;;;;0.75;0.35;;;;;;;;;;5054837;28;20033;-59
2023/09/22 10:32:18;;;;;;;1.95;0.30;;;;;;;;;;5054664;28;20512;-59
2023/09/22 10:34:54;;;;;;;1.17;0.35;;;;;;;;;;5054085;28;20061;-59
2023/09/22 10:37:23;;;;;;;1.25;0.50;;;;;;;;;;5054747;28;20017;-59
2023/09/22 10:39:49;;;;;;;1.30;0.50;;;;;;;;;;5054565;28;20037;-59
2023/09/22 10:42:16;;;;;;;0.82;0.38;;;;;;;;;;5054070;28;20021;-59
2023/09/22 10:44:55;;;;;;;1.90;0.40;;;;;;;;;;5053831;28;20075;-59
2023/09/22 10:47:21;;;;;;;0.95;0.43;;;;;;;;;;5053980;28;20063;-59
2023/09/22 10:49:48;;;;;;;0.65;0.28;;;;;;;;;;5053734;28;20057;-59
2023/09/22 10:52:17;;;;;;;0.52;0.20;;;;;;;;;;5053794;28;20104;-59
2023/09/22 10:54:43;;;;;;;0.47;0.20;;;;;;;;;;5053878;28;20057;-59
2023/09/22 10:57:09;;;;;;;0.93;0.43;;;;;;;;;;5053891;28;20032;-59
2023/09/22 10:59:36;;;;;;;0.95;0.40;;;;;;;;;;5054358;28;20025;-58
2023/09/22 11:02:02;;;;;;;0.50;0.20;;;;;;;;;;5054189;28;20017;-59
2023/09/22 11:04:55;;;;;;;1.50;0.43;;;;;;;;;;5053374;28;20024;-58
2023/09/22 11:07:33;;;;;;;0.75;0.30;;;;;;;;;;5052851;28;20037;-59
2023/09/22 11:10:00;;;;;;;3.10;0.32;;;;;;;;;;5054276;28;20120;-59
2023/09/22 11:12:29;;;;;;;2.78;0.57;;;;;;;;;;5053657;28;20047;-59
2023/09/22 11:14:56;;;;;;;0.65;0.28;;;;;;;;;;5053874;28;20017;-58
2023/09/22 11:17:22;;;;;;;0.63;0.28;;;;;;;;;;5053387;28;20092;-59
2023/09/22 11:19:52;;;;;;;3.22;0.20;;;;;;;;;;5053933;28;20500;-58
2023/09/22 11:22:18;;;;;;;0.77;0.30;;;;;;;;;;5053524;28;20021;-59
2023/09/22 11:24:46;;;;;;;0.57;0.28;;;;;;;;;;5054064;28;20025;-58
2023/09/22 11:27:13;;;;;;;0.85;0.30;;;;;;;;;;5053512;28;20021;-59
2023/09/22 11:29:39;;;;;;;0.93;0.30;;;;;;;;;;5054608;28;20056;-58
2023/09/22 11:32:08;;;;;;;0.68;0.25;;;;;;;;;;5053206;28;20477;-59
2023/09/22 11:34:44;;;;;;;1.23;0.40;;;;;;;;;;5053160;28;20414;-59
2023/09/22 11:37:10;;;;;;;0.85;0.30;;;;;;;;;;5053787;28;20025;-59
2023/09/22 11:39:36;;;;;;;1.25;0.30;;;;;;;;;;5053372;28;20040;-59
2023/09/22 11:42:03;;;;;;;4.43;0.35;;;;;;;;;;5052952;28;20376;-59
2023/09/22 11:44:29;;;;;;;0.70;0.30;;;;;;;;;;5053824;28;20031;-59
2023/09/22 11:46:55;;;;;;;2.55;0.30;;;;;;;;;;5053351;28;20531;-58
2023/09/22 11:49:21;;;;;;;1.30;0.32;;;;;;;;;;5053671;28;20086;-59
2023/09/22 11:51:50;;;;;;;1.30;0.60;;;;;;;;;;5053191;28;20463;-59
2023/09/22 11:54:20;;;;;;;2.60;0.63;;;;;;;;;;5053220;28;20108;-59
2023/09/22 11:56:46;;;;;;;1.70;0.55;;;;;;;;;;5056041;28;20021;-59
2023/09/22 11:59:19;;;;;;;1.15;0.40;;;;;;;;;;5057241;28;20075;-59
2023/09/22 12:01:45;;;;;;;1.65;0.63;;;;;;;;;;5057044;28;20024;-59
2023/09/22 12:04:12;;;;;;;1.95;0.40;;;;;;;;;;5056986;28;20021;-59
2023/09/22 12:06:40;;;;;;;0.77;0.38;;;;;;;;;;5057756;28;20028;-58
2023/09/22 12:09:06;;;;;;;0.77;0.45;;;;;;;;;;5056946;28;20123;-59
2023/09/22 12:11:32;;;;;;;0.32;0.10;;;;;;;;;;5056974;28;20025;-59
2023/09/22 12:14:00;;;;;;;1.42;0.65;;;;;;;;;;5057402;28;20465;-59
2023/09/22 12:16:26;;;;;;;0.77;0.40;;;;;;;;;;5057431;28;20036;-59
2023/09/22 12:18:52;;;;;;;1.65;0.40;;;;;;;;;;5057234;28;20025;-59
2023/09/22 12:21:18;;;;;;;1.20;0.35;;;;;;;;;;5057433;28;20344;-59
2023/09/22 12:23:44;;;;;;;1.77;0.57;;;;;;;;;;5056304;28;20029;-59
2023/09/22 12:26:10;;;;;;;0.70;0.30;;;;;;;;;;5057028;28;20025;-59
2023/09/22 12:28:37;;;;;;;1.23;0.50;;;;;;;;;;5056561;28;20079;-59
2023/09/22 12:31:03;;;;;;;0.98;0.22;;;;;;;;;;5056842;28;20021;-59
2023/09/22 12:33:29;;;;;;;0.50;0.20;;;;;;;;;;5056406;28;20489;-59
2023/09/22 12:35:55;;;;;;;1.00;0.32;;;;;;;;;;5056330;28;20048;-59
2023/09/22 12:38:22;;;;;;;0.95;0.60;;;;;;;;;;5056125;28;20017;-59
2023/09/22 12:40:48;;;;;;;1.02;0.32;;;;;;;;;;5056538;28;20068;-59
2023/09/22 12:43:14;;;;;;;1.08;0.47;;;;;;;;;;5056529;28;20487;-59
2023/09/22 12:45:40;;;;;;;0.68;0.22;;;;;;;;;;5056141;28;20060;-59
2023/09/22 12:48:06;;;;;;;0.77;0.30;;;;;;;;;;5056406;28;20475;-59
2023/09/22 12:50:32;;;;;;;3.50;0.38;;;;;;;;;;5055949;28;20029;-59
2023/09/22 12:52:58;;;;;;;1.13;0.57;;;;;;;;;;5056273;28;20028;-59
2023/09/22 12:55:24;;;;;;;1.35;0.47;;;;;;;;;;5055911;28;20119;-59
2023/09/22 12:57:51;;;;;;;1.08;0.32;;;;;;;;;;5056744;28;20021;-59
2023/09/22 13:00:18;;;;;;;1.38;0.40;;;;;;;;;;5055835;28;20056;-59
2023/09/22 13:02:44;;;;;;;0.77;0.40;;;;;;;;;;5055583;28;20490;-59
2023/09/22 13:05:13;;;;;;;1.05;0.45;;;;;;;;;;5056215;28;20040;-59
2023/09/22 13:07:39;;;;;;;2.15;0.90;;;;;;;;;;5055201;28;20025;-59
2023/09/22 13:10:06;;;;;;;1.40;0.52;;;;;;;;;;5055028;28;20075;-59
2023/09/22 13:12:33;;;;;;;1.20;0.40;;;;;;;;;;5055557;28;20021;-59
2023/09/22 13:14:59;;;;;;;1.30;0.60;;;;;;;;;;5055666;28;20519;-59
2023/09/22 13:17:26;;;;;;;1.48;0.45;;;;;;;;;;5055552;28;20029;-59
2023/09/22 13:19:52;;;;;;;2.03;0.40;;;;;;;;;;5056007;28;20051;-59
2023/09/22 13:22:20;;;;;;;1.15;0.50;;;;;;;;;;5055496;28;20024;-59
2023/09/22 13:24:46;;;;;;;2.58;0.38;;;;;;;;;;5055452;28;20024;-59
2023/09/22 13:27:12;;;;;;;1.15;0.52;;;;;;;;;;5055642;28;20062;-59
2023/09/22 13:29:39;;;;;;;0.95;0.52;;;;;;;;;;5055535;28;20051;-59
2023/09/22 13:32:06;;;;;;;0.80;0.30;;;;;;;;;;5055289;28;20029;-59
2023/09/22 13:34:35;;;;;;;4.10;0.70;;;;;;;;;;5055117;28;20029;-59
2023/09/22 13:37:02;;;;;;;2.38;0.60;;;;;;;;;;5055192;28;20029;-59
2023/09/22 13:39:28;;;;;;;2.72;0.40;;;;;;;;;;5055954;28;20356;-59
2023/09/22 13:41:54;;;;;;;1.00;0.40;;;;;;;;;;5055144;28;20028;-59
2023/09/22 13:44:20;;;;;;;1.33;0.60;;;;;;;;;;5055133;28;20021;-59
2023/09/22 13:46:47;;;;;;;0.40;0.10;;;;;;;;;;5055009;28;20104;-59
2023/09/22 13:49:13;;;;;;;3.03;0.35;;;;;;;;;;5055842;28;20025;-59
2023/09/22 13:51:40;;;;;;;3.15;0.45;;;;;;;;;;5054556;28;20036;-59
2023/09/22 13:54:06;;;;;;;1.20;0.45;;;;;;;;;;5055387;28;20055;-59
2023/09/22 13:56:32;;;;;;;1.60;0.43;;;;;;;;;;5054958;28;20020;-59
2023/09/22 13:58:58;;;;;;;1.70;0.50;;;;;;;;;;5055307;28;20025;-59
2023/09/22 14:01:24;;;;;;;1.30;0.70;;;;;;;;;;5055448;28;20036;-59
2023/09/22 14:03:51;;;;;;;2.25;0.60;;;;;;;;;;5054878;28;20362;-59
2023/09/22 14:06:17;;;;;;;1.83;0.85;;;;;;;;;;5054995;28;20032;-59
2023/09/22 14:08:45;;;;;;;3.63;0.50;;;;;;;;;;5054423;28;20029;-59
2023/09/22 14:11:11;;;;;;;0.60;0.20;;;;;;;;;;5055300;28;20417;-59
2023/09/22 14:13:37;;;;;;;1.42;0.65;;;;;;;;;;5054382;28;20075;-59
2023/09/22 14:16:03;;;;;;;0.75;0.30;;;;;;;;;;5054435;28;20017;-59
2023/09/22 14:18:29;;;;;;;3.15;0.70;;;;;;;;;;5053907;28;20021;-59
2023/09/22 14:20:55;;;;;;;3.17;0.50;;;;;;;;;;5054682;28;20128;-59
2023/09/22 14:23:21;;;;;;;1.13;0.60;;;;;;;;;;5054517;28;20092;-59
2023/09/22 14:25:48;;;;;;;0.80;0.30;;;;;;;;;;5054483;28;20531;-59
2023/09/22 14:28:14;;;;;;;2.10;0.35;;;;;;;;;;5054376;28;20083;-59
2023/09/22 14:30:40;;;;;;;0.93;0.38;;;;;;;;;;5054456;28;20025;-58
2023/09/22 14:33:06;;;;;;;0.75;0.25;;;;;;;;;;5054556;28;20116;-58
2023/09/22 14:35:32;;;;;;;0.85;0.32;;;;;;;;;;5054374;28;20490;-58
2023/09/22 14:37:58;;;;;;;1.30;0.25;;;;;;;;;;5053934;28;20025;-58
2023/09/22 14:40:25;;;;;;;1.13;0.50;;;;;;;;;;5054306;28;20087;-58
2023/09/22 14:42:53;;;;;;;1.40;0.50;;;;;;;;;;5054304;28;20339;-58